UTC

OS93 flight history

Full flight history for Austrian Airlines flight OS93

   
Aircraft  
 
Registration 
 
ALTITUDE00000 FTSPEED000 KTSTRACK000 °UTC TIME00:00
DateFromToAircraftSTDATDSTAStatus 
* All dates and times are in UTC timezone
2014-07-30Vienna (VIE)Washington (IAD)-08:25-18:20Scheduled 
2014-07-29Vienna (VIE)Washington (IAD)-08:25-18:20Scheduled 
2014-07-28Vienna (VIE)Washington (IAD)-08:25-18:20Scheduled 
2014-07-27Vienna (VIE)Washington (IAD)-08:25-18:20Scheduled 
2014-07-26Vienna (VIE)Washington (IAD)-08:25-18:20Scheduled 
2014-07-25Vienna (VIE)Washington (IAD)-08:25-18:20Scheduled 
2014-07-24Vienna (VIE)Washington (IAD)-08:25-18:20Scheduled 
2014-07-23Vienna (VIE)Washington (IAD)-08:25-18:20Scheduled 
2014-07-22Vienna (VIE)Washington (IAD)-08:25-18:20Scheduled 
2014-07-21Vienna (VIE)Washington (IAD)B772 (OE-LPE)08:2509:0518:20Landed 17:34
2014-07-20Vienna (VIE)Washington (IAD)B772 (OE-LPE)08:25-18:20Landed 17:41
2014-07-19Vienna (VIE)Washington (IAD)B772 (OE-LPE)08:2508:4218:20Landed 17:31
2014-07-18Vienna (VIE)Washington (IAD)B772 (OE-LPE)08:2508:4618:20Landed 17:52
2014-07-17Vienna (VIE)Washington (IAD)B772 (OE-LPE)08:2508:4818:20Landed 18:00
2014-07-16Vienna (VIE)Washington (IAD)B772 (OE-LPE)08:2508:4018:20Landed 17:59
2014-07-15Vienna (VIE)Washington (IAD)B772 (OE-LPD)08:2508:4718:20Landed 17:53
2014-07-14Vienna (VIE)Washington (IAD)B772 (OE-LPC)08:2509:0018:20Landed 18:08
2014-07-13Vienna (VIE)Washington (IAD)B772 (OE-LPD)08:2508:4518:20Landed 17:36
2014-07-12Vienna (VIE)Washington (IAD)B772 (OE-LPE)08:2508:4218:20Landed 17:48
2014-07-11Vienna (VIE)Washington (IAD)B772 (OE-LPE)08:25-18:20Landed 17:49
2014-07-10Vienna (VIE)Washington (IAD)B772 (OE-LPE)08:2508:5718:20Landed 17:44
2014-07-09Vienna (VIE)Washington (IAD)B772 (OE-LPE)08:2508:4418:20Landed 17:31
2014-07-08Vienna (VIE)Washington (IAD)B772 (OE-LPE)08:2508:4318:20Landed 17:35
2014-07-07Vienna (VIE)Washington (IAD)B772 (OE-LPE)08:2509:1118:20Scheduled 00:00
2014-07-06Vienna (VIE)Washington (IAD)B772 (OE-LPE)08:2508:4518:20Landed 17:48
2014-07-05Vienna (VIE)Washington (IAD)B772 (OE-LPE)08:2508:4518:20Landed 17:55
2014-07-04Vienna (VIE)Washington (IAD)B772 (OE-LPE)08:2509:1518:20Landed 18:21
2014-07-03Vienna (VIE)Washington (IAD)B772 (OE-LPE)08:2508:4918:20Landed 17:45
2014-07-02Vienna (VIE)Washington (IAD)B772 (OE-LPE)08:2508:4218:20Landed 17:40
2014-07-01Vienna (VIE)Washington (IAD)B772 (OE-LPE)08:2508:3818:20Landed 17:29
2014-06-30Vienna (VIE)Washington (IAD)B772 (OE-LPE)08:2510:5618:20Landed 19:26
2014-06-29Vienna (VIE)Washington (IAD)B772 (OE-LPE)08:2508:5718:20Landed 17:38
2014-06-28Vienna (VIE)Washington (IAD)B772 (OE-LPE)08:2508:4418:20Landed 17:32
2014-06-27Vienna (VIE)Washington (IAD)B763 (OE-LAY)08:2508:3718:20Landed 18:10
2014-06-26Vienna (VIE)Washington (IAD)B763 (OE-LAT)08:2508:4818:20Landed 18:16
2014-06-25Vienna (VIE)Washington (IAD)B763 (OE-LAE)08:2508:3218:20Landed 18:08
2014-06-24Vienna (VIE)Washington (IAD)B763 (OE-LAZ)08:2508:4418:20Landed 18:03
2014-06-23Vienna (VIE)Washington (IAD)B763 (OE-LAY)08:2508:4418:20Landed 18:05
2014-06-22Vienna (VIE)Washington (IAD)B763 (OE-LAY)08:2508:3718:20Landed 18:13
2014-06-21Vienna (VIE)Washington (IAD)-08:2508:3518:20Canceled 
2014-06-20Vienna (VIE)Washington (IAD)B763 (OE-LAZ)08:2508:5918:20Landed 18:09
2014-06-19Vienna (VIE)Washington (IAD)B763 (OE-LAE)08:2508:3718:20Landed 17:43
2014-06-18Vienna (VIE)Washington (IAD)B763 (OE-LAT)08:2508:4118:20Landed 17:43
2014-06-17Vienna (VIE)Washington (IAD)B763 (OE-LAT)08:2508:3818:20Landed 18:02
2014-06-16Vienna (VIE)Washington (IAD)B763 (OE-LAT)08:2508:4018:20Landed 17:59
2014-06-15Vienna (VIE)Washington (IAD)B763 (OE-LAT)08:2508:3718:20Landed 17:43
2014-06-14Vienna (VIE)Washington (IAD)B763 (OE-LAZ)08:2508:4718:20Landed 18:04
2014-06-13Vienna (VIE)Washington (IAD)B763 (OE-LAZ)08:2508:3518:20Landed 18:08
2014-06-12Vienna (VIE)Washington (IAD)B763 (OE-LAE)08:2508:4218:20Landed 18:08
2014-06-11Vienna (VIE)Washington (IAD)B763 (OE-LAT)08:2508:4518:20Landed 17:59
2014-06-10Vienna (VIE)Washington (IAD)B763 (OE-LAT)08:2508:4418:20Landed 17:56
2014-06-09Vienna (VIE)Washington (IAD)B763 (OE-LAT)08:2508:4918:20Landed 17:59
2014-06-08Vienna (VIE)Washington (IAD)B763 (OE-LAT)08:2508:4818:20Landed 17:46
2014-06-07Vienna (VIE)Washington (IAD)B763 (OE-LAT)08:2508:3318:20Landed 17:35
2014-06-06Vienna (VIE)Washington (IAD)B763 (OE-LAT)08:2508:4218:20Landed 17:53
2014-06-05Vienna (VIE)Washington (IAD)B763 (OE-LAY)08:2508:3918:20Landed 17:58
2014-06-04Vienna (VIE)Washington (IAD)B763 (OE-LAZ)08:2508:4218:20Landed 17:49
2014-06-03Vienna (VIE)Washington (IAD)B763 (OE-LAE)08:25-18:20Landed 17:56
2014-06-02Vienna (VIE)Washington (IAD)B763 (OE-LAT)08:2508:3418:20Landed 17:53
2014-06-01Vienna (VIE)Washington (IAD)B763 (OE-LAE)08:2508:3618:20Landed 17:52
2014-05-31Vienna (VIE)Washington (IAD)B763 (OE-LAZ)08:2508:4618:20Landed 17:55
2014-05-30Vienna (VIE)Washington (IAD)B763 (OE-LAT)08:2508:4018:20Landed 18:01
2014-05-29Vienna (VIE)Washington (IAD)B763 (OE-LAY)08:2508:4518:20Landed 17:44
2014-05-28Vienna (VIE)Washington (IAD)B763 (OE-LAT)08:2508:4718:20Landed 17:41
2014-05-27Vienna (VIE)Washington (IAD)B763 (OE-LAT)08:2508:3518:20Landed 17:25
2014-05-26Vienna (VIE)Washington (IAD)B763 (OE-LAT)08:2511:3718:20Landed 20:28
2014-05-25Vienna (VIE)Washington (IAD)B763 (OE-LAZ)08:2508:3118:20Landed 17:41
2014-05-24Vienna (VIE)Washington (IAD)B763 (OE-LAY)08:2508:4718:20Landed 17:53
2014-05-23Vienna (VIE)Washington (IAD)B763 (OE-LAT)08:2509:0118:20Landed 18:09
2014-05-22Vienna (VIE)Washington (IAD)B763 (OE-LAT)08:2509:0818:20Landed 18:11
2014-05-21Vienna (VIE)Washington (IAD)B763 (OE-LAT)08:2509:1118:20Landed 18:17
2014-05-20Vienna (VIE)Washington (IAD)B763 (OE-LAE)08:2508:3218:20Landed 17:26
2014-05-19Vienna (VIE)Washington (IAD)B763 (OE-LAY)08:2508:3418:20Landed 17:38
2014-05-18Vienna (VIE)Washington (IAD)B763 (OE-LAZ)08:2508:2818:20Landed 17:27
2014-05-17Vienna (VIE)Washington (IAD)B763 (OE-LAY)08:2508:3518:20Landed 17:48
2014-05-16Vienna (VIE)Washington (IAD)B763 (OE-LAZ)08:25-18:20Landed 17:51
2014-05-15Vienna (VIE)Washington (IAD)B763 (OE-LAT)08:2508:3818:20Landed 17:43